createdAt,value
2022-10-19T00:01:12.102Z,25.73
2022-10-19T00:03:39.750Z,23.85
2022-10-19T00:06:26.192Z,26.52
2022-10-19T00:09:18.181Z,28.65
2022-10-19T00:11:50.043Z,29.95
2022-10-19T00:14:22.872Z,32.88
2022-10-19T00:16:51.212Z,28.63
2022-10-19T00:19:21.988Z,31.45
2022-10-19T00:24:16.054Z,29.85
2022-10-19T00:26:43.579Z,31.63
2022-10-19T00:29:12.466Z,29.75
2022-10-19T00:31:39.342Z,31.50
2022-10-19T00:34:06.147Z,30.50
2022-10-19T00:36:35.076Z,30.67
2022-10-19T00:39:03.936Z,33.70
2022-10-19T00:41:32.871Z,33.50
2022-10-19T00:44:02.595Z,25.95
2022-10-19T00:46:31.997Z,25.65
2022-10-19T00:49:04.011Z,29.88
2022-10-19T00:51:33.487Z,27.67
2022-10-19T00:54:02.651Z,29.35
2022-10-19T00:56:29.487Z,27.30
2022-10-19T00:58:56.446Z,33.45
2022-10-19T01:01:27.329Z,33.60
2022-10-19T01:03:54.080Z,28.92
2022-10-19T01:06:21.220Z,27.30
2022-10-19T01:08:47.862Z,27.80
2022-10-19T01:11:14.583Z,30.90
2022-10-19T01:14:05.578Z,29.30
2022-10-19T01:17:17.306Z,32.38
2022-10-19T01:20:05.997Z,28.95
2022-10-19T01:23:03.670Z,27.67
2022-10-19T01:25:39.375Z,27.23
2022-10-19T01:28:17.233Z,31.00
2022-10-19T01:30:58.892Z,29.30
2022-10-19T01:33:41.453Z,24.88
2022-10-19T01:36:29.926Z,35.22
2022-10-19T01:39:13.006Z,27.58
2022-10-19T01:41:58.194Z,29.45
2022-10-19T01:44:48.384Z,33.75
2022-10-19T01:47:31.170Z,29.88
2022-10-19T01:50:16.595Z,30.08
2022-10-19T01:52:44.056Z,30.60
2022-10-19T01:55:14.814Z,27.77
2022-10-19T01:57:47.041Z,30.45
2022-10-19T02:00:16.566Z,26.95
2022-10-19T02:02:47.882Z,27.33
2022-10-19T02:05:17.791Z,26.27
2022-10-19T02:07:49.512Z,27.50
2022-10-19T02:10:16.329Z,27.30
2022-10-19T02:12:43.928Z,31.95
2022-10-19T02:15:14.681Z,28.52
2022-10-19T02:17:49.205Z,27.95
2022-10-19T02:20:17.091Z,29.83
2022-10-19T02:22:44.391Z,29.75
2022-10-19T02:25:12.188Z,35.05
2022-10-19T02:27:43.594Z,31.65
2022-10-19T02:30:13.034Z,29.40
2022-10-19T02:32:39.963Z,32.45
2022-10-19T02:35:07.266Z,28.15
2022-10-19T02:37:34.226Z,32.38
2022-10-19T02:40:01.264Z,27.02
2022-10-19T02:42:50.987Z,30.90
2022-10-19T02:45:23.742Z,25.65
2022-10-19T02:47:55.133Z,28.75
2022-10-19T02:50:22.593Z,33.50
2022-10-19T02:52:49.270Z,36.90
2022-10-19T02:55:16.108Z,37.05
2022-10-19T02:57:42.857Z,38.63
2022-10-19T03:00:10.797Z,40.70
2022-10-19T03:02:37.638Z,40.72
2022-10-19T03:05:04.814Z,40.13
2022-10-19T03:07:31.736Z,38.35
2022-10-19T03:09:58.541Z,43.03
2022-10-19T03:12:25.213Z,40.22
2022-10-19T03:14:51.864Z,38.45
2022-10-19T03:17:18.630Z,38.00
2022-10-19T03:19:45.454Z,33.17
2022-10-19T03:22:13.864Z,34.45
2022-10-19T03:24:40.620Z,31.45
2022-10-19T03:27:07.347Z,31.80
2022-10-19T03:29:33.994Z,33.38
2022-10-19T03:32:00.748Z,32.33
2022-10-19T03:34:27.535Z,29.95
2022-10-19T03:36:54.317Z,28.70
2022-10-19T03:39:20.992Z,30.45
2022-10-19T03:41:47.680Z,29.60
2022-10-19T03:44:14.357Z,26.58
2022-10-19T03:46:41.252Z,25.63
2022-10-19T03:49:09.337Z,31.63
2022-10-19T03:51:36.232Z,29.48
2022-10-19T03:54:06.100Z,30.38
2022-10-19T03:59:02.516Z,28.90
2022-10-19T04:01:41.391Z,28.67
2022-10-19T04:04:12.162Z,26.52
2022-10-19T04:06:41.218Z,28.75
2022-10-19T04:09:09.358Z,31.93
2022-10-19T04:11:36.605Z,29.02
2022-10-19T04:14:03.842Z,27.20
2022-10-19T04:16:32.226Z,29.90
2022-10-19T04:18:59.510Z,27.70
2022-10-19T04:21:33.483Z,29.17
2022-10-19T04:24:04.996Z,27.40
2022-10-19T04:26:32.480Z,31.77
2022-10-19T04:29:00.428Z,30.67
2022-10-19T04:31:28.671Z,28.23
2022-10-19T04:33:56.364Z,27.67
2022-10-19T04:36:23.995Z,24.42
2022-10-19T04:38:51.021Z,23.23
2022-10-19T04:41:20.103Z,28.02
2022-10-19T04:43:47.904Z,27.70
2022-10-19T04:46:19.845Z,23.02
2022-10-19T04:48:48.284Z,26.00
2022-10-19T04:51:15.859Z,25.23
2022-10-19T04:53:44.099Z,24.05
2022-10-19T04:56:22.495Z,26.65
2022-10-19T04:58:49.586Z,27.10
2022-10-19T05:01:20.869Z,24.00
2022-10-19T05:03:48.626Z,23.00
2022-10-19T05:06:16.168Z,21.10
2022-10-19T05:08:42.865Z,26.15
2022-10-19T05:11:14.406Z,22.55
2022-10-19T05:13:42.701Z,21.45
2022-10-19T05:16:12.750Z,21.27
2022-10-19T05:18:40.000Z,21.77
2022-10-19T05:21:10.087Z,22.80
2022-10-19T05:23:37.184Z,21.13
2022-10-19T05:26:06.616Z,19.33
2022-10-19T05:28:33.964Z,18.38
2022-10-19T05:31:09.920Z,20.30
2022-10-19T05:33:37.672Z,19.20
2022-10-19T05:36:20.974Z,16.63
2022-10-19T05:38:50.034Z,17.95
2022-10-19T05:41:17.329Z,17.83
2022-10-19T05:43:45.116Z,19.63
2022-10-19T05:46:14.421Z,15.48
2022-10-19T05:48:41.669Z,17.05
2022-10-19T05:51:11.998Z,18.10
2022-10-19T05:56:17.306Z,15.77
2022-10-19T05:58:44.766Z,12.15
2022-10-19T06:01:12.665Z,12.85
2022-10-19T06:03:39.349Z,12.55
2022-10-19T06:06:07.946Z,12.25
2022-10-19T06:08:35.176Z,15.70
2022-10-19T06:11:33.934Z,15.38
2022-10-19T06:14:02.573Z,13.40
2022-10-19T06:16:30.918Z,12.23
2022-10-19T06:18:58.188Z,12.80
2022-10-19T06:21:27.321Z,10.98
2022-10-19T06:23:56.823Z,5.65
2022-10-19T06:26:24.547Z,7.28
2022-10-19T06:28:52.109Z,5.50
2022-10-19T06:31:18.770Z,6.35
2022-10-19T06:33:49.211Z,5.57
2022-10-19T06:36:19.497Z,5.72
2022-10-19T06:38:46.967Z,4.43
2022-10-19T06:41:14.189Z,5.78
2022-10-19T06:43:43.050Z,5.32
2022-10-19T06:46:17.530Z,5.63
2022-10-19T06:48:44.266Z,6.35
2022-10-19T06:51:12.035Z,6.40
2022-10-19T06:53:38.829Z,6.85
2022-10-19T06:56:06.774Z,6.28
2022-10-19T06:58:38.261Z,8.98
2022-10-19T07:01:07.760Z,8.52
2022-10-19T07:03:35.648Z,7.85
2022-10-19T07:06:05.490Z,7.57
2022-10-19T07:11:02.641Z,7.13
2022-10-19T07:13:30.431Z,5.63
2022-10-19T07:16:07.018Z,7.72
2022-10-19T07:18:35.346Z,7.03
2022-10-19T07:21:04.704Z,5.40
2022-10-19T07:23:33.133Z,7.65
2022-10-19T07:26:05.411Z,6.28
2022-10-19T07:28:32.407Z,6.40
2022-10-19T07:30:59.127Z,6.60
2022-10-19T07:33:26.109Z,7.55
2022-10-19T07:35:59.406Z,7.93
2022-10-19T07:38:26.092Z,10.15
2022-10-19T07:41:14.170Z,9.48
2022-10-19T07:43:43.125Z,8.13
2022-10-19T07:46:13.467Z,9.10
2022-10-19T07:48:40.156Z,9.07
2022-10-19T07:51:08.894Z,6.90
2022-10-19T07:53:36.579Z,9.63
2022-10-19T07:56:09.174Z,10.10
2022-10-19T07:58:36.634Z,8.00
2022-10-19T08:01:06.381Z,7.63
2022-10-19T08:06:22.015Z,9.80
2022-10-19T08:08:49.488Z,8.85
2022-10-19T08:11:23.638Z,9.25
2022-10-19T08:13:50.726Z,10.75
2022-10-19T08:16:28.604Z,8.52
2022-10-19T08:19:01.230Z,7.68
2022-10-19T08:21:29.189Z,8.38
2022-10-19T08:23:56.109Z,7.95
2022-10-19T08:26:23.202Z,6.47
2022-10-19T08:28:49.920Z,5.90
2022-10-19T08:31:22.242Z,6.38
2022-10-19T08:33:50.620Z,7.28
2022-10-19T08:36:19.670Z,7.55
2022-10-19T08:38:48.593Z,8.10
2022-10-19T08:41:34.257Z,7.13
2022-10-19T08:44:19.137Z,6.72
2022-10-19T08:47:14.059Z,6.85
2022-10-19T08:49:41.864Z,6.65
2022-10-19T08:52:20.206Z,6.65
2022-10-19T08:54:58.878Z,8.13
2022-10-19T08:57:34.846Z,8.70
2022-10-19T09:00:20.986Z,6.88
2022-10-19T09:03:31.918Z,6.40
2022-10-19T09:06:19.928Z,5.15
2022-10-19T09:08:49.939Z,4.65
2022-10-19T09:11:22.703Z,5.53
2022-10-19T09:14:04.663Z,7.75
2022-10-19T09:16:33.038Z,4.00
2022-10-19T09:18:59.710Z,7.18
2022-10-19T09:21:46.312Z,4.55
2022-10-19T09:24:20.091Z,5.00
2022-10-19T09:26:53.703Z,5.28
2022-10-19T09:29:30.009Z,4.22
2022-10-19T09:32:00.624Z,3.50
2022-10-19T09:34:33.473Z,3.53
2022-10-19T09:37:00.957Z,5.60
2022-10-19T09:39:29.943Z,3.88
2022-10-19T09:42:08.365Z,7.97
2022-10-19T09:44:35.038Z,3.80
2022-10-19T09:47:20.636Z,3.55
2022-10-19T09:49:48.941Z,7.65
2022-10-19T09:52:39.467Z,3.65
2022-10-19T09:55:15.785Z,4.57
2022-10-19T09:57:46.878Z,3.28
2022-10-19T10:00:22.296Z,3.95
2022-10-19T10:02:54.402Z,3.05
2022-10-19T10:05:36.683Z,3.90
2022-10-19T10:08:05.077Z,3.50
2022-10-19T10:10:38.447Z,3.25
2022-10-19T10:13:06.114Z,3.83
2022-10-19T10:15:44.200Z,3.83
2022-10-19T10:18:16.765Z,3.90
2022-10-19T10:21:04.909Z,2.67
2022-10-19T10:23:36.429Z,2.85
2022-10-19T10:26:04.377Z,2.53
2022-10-19T10:28:31.524Z,2.20
2022-10-19T10:31:04.928Z,3.17
2022-10-19T10:33:49.207Z,4.68
2022-10-19T10:36:15.913Z,3.35
2022-10-19T10:38:47.364Z,2.03
2022-10-19T10:41:20.206Z,5.53
2022-10-19T10:44:04.617Z,1.35
2022-10-19T10:46:39.422Z,1.40
2022-10-19T10:49:16.725Z,6.63
2022-10-19T10:51:50.658Z,3.63
2022-10-19T10:54:31.395Z,2.95
2022-10-19T10:57:20.029Z,1.42
2022-10-19T10:59:49.814Z,4.32
2022-10-19T11:05:17.634Z,3.88
2022-10-19T11:07:48.383Z,1.50
2022-10-19T11:10:44.296Z,4.57
2022-10-19T11:13:13.985Z,1.30
2022-10-19T11:18:32.440Z,1.55
2022-10-19T11:21:07.381Z,2.13
2022-10-19T11:23:49.257Z,1.88
2022-10-19T11:26:53.724Z,2.38
2022-10-19T11:29:55.725Z,2.05
2022-10-19T11:32:48.114Z,3.58
2022-10-19T11:35:50.373Z,2.70
2022-10-19T11:38:35.936Z,2.25
2022-10-19T11:41:38.925Z,1.20
2022-10-19T11:44:26.369Z,3.63
2022-10-19T11:47:08.167Z,4.50
2022-10-19T11:50:16.329Z,1.90
2022-10-19T11:53:08.048Z,2.35
2022-10-19T11:56:13.594Z,2.40
2022-10-19T11:59:05.646Z,3.40
2022-10-19T12:02:05.195Z,1.98
2022-10-19T12:04:37.756Z,1.58
2022-10-19T12:07:16.585Z,2.17
2022-10-19T12:09:55.146Z,7.10
2022-10-19T12:12:38.879Z,3.47
2022-10-19T12:15:18.859Z,6.50
2022-10-19T12:17:50.165Z,2.28
2022-10-19T12:20:24.929Z,4.07
2022-10-19T12:22:51.962Z,1.73
2022-10-19T12:25:20.036Z,1.85
2022-10-19T12:27:49.186Z,1.83
2022-10-19T12:30:22.469Z,2.47
2022-10-19T12:33:06.582Z,3.55
2022-10-19T12:35:53.518Z,1.55
2022-10-19T12:38:50.914Z,4.15
2022-10-19T12:41:24.938Z,6.70
2022-10-19T12:44:13.130Z,3.65
2022-10-19T12:47:00.846Z,2.28
2022-10-19T12:49:34.486Z,3.20
2022-10-19T12:52:02.421Z,2.30
2022-10-19T12:54:32.631Z,3.08
2022-10-19T12:57:01.806Z,2.05
2022-10-19T12:59:37.213Z,2.78
2022-10-19T13:02:24.380Z,2.85
2022-10-19T13:04:54.403Z,6.72
2022-10-19T13:07:21.191Z,2.42
2022-10-19T13:09:48.890Z,2.95
2022-10-19T13:12:25.619Z,3.75
2022-10-19T13:15:00.997Z,3.20
2022-10-19T13:17:36.656Z,4.47
2022-10-19T13:20:15.746Z,2.20
2022-10-19T13:22:45.055Z,2.00
2022-10-19T13:25:24.256Z,6.15
2022-10-19T13:27:52.859Z,1.90
2022-10-19T13:30:44.118Z,4.82
2022-10-19T13:33:26.028Z,11.27
2022-10-19T13:35:58.847Z,2.45
2022-10-19T13:38:32.966Z,3.80
2022-10-19T13:41:06.965Z,2.60
2022-10-19T13:43:55.416Z,3.67
2022-10-19T13:46:31.928Z,3.13
2022-10-19T13:49:02.286Z,4.95
2022-10-19T13:51:47.465Z,3.42
2022-10-19T13:54:19.923Z,2.90
2022-10-19T13:56:49.584Z,4.10
2022-10-19T13:59:59.638Z,4.03
2022-10-19T14:03:06.613Z,6.47
2022-10-19T14:08:43.288Z,4.18
2022-10-19T14:11:32.114Z,3.35
2022-10-19T14:14:11.121Z,3.43
2022-10-19T14:17:01.193Z,2.88
2022-10-19T14:19:34.180Z,7.57
2022-10-19T14:22:17.371Z,4.22
2022-10-19T14:24:44.225Z,4.72
2022-10-19T14:27:18.520Z,2.42
2022-10-19T14:29:48.122Z,3.35
2022-10-19T14:32:15.666Z,3.15
2022-10-19T14:34:44.723Z,3.65
2022-10-19T14:37:23.526Z,2.20
2022-10-19T14:40:08.569Z,3.87
2022-10-19T14:42:43.854Z,2.80
2022-10-19T14:45:23.341Z,2.90
2022-10-19T14:48:03.842Z,4.45
2022-10-19T14:50:39.564Z,2.95
2022-10-19T14:53:37.348Z,4.15
2022-10-19T14:56:15.386Z,3.45
2022-10-19T14:58:51.325Z,3.03
2022-10-19T15:01:20.225Z,5.47
2022-10-19T15:03:49.010Z,3.60
2022-10-19T15:06:42.546Z,2.73
2022-10-19T15:09:37.372Z,3.83
2022-10-19T15:12:19.790Z,5.43
2022-10-19T15:14:47.961Z,2.95
2022-10-19T15:17:22.975Z,4.07
2022-10-19T15:19:49.885Z,3.55
2022-10-19T15:22:20.262Z,3.25
2022-10-19T15:25:07.729Z,4.88
2022-10-19T15:27:34.371Z,5.05
2022-10-19T15:30:22.930Z,2.65
2022-10-19T15:33:01.792Z,3.22
2022-10-19T15:35:35.146Z,7.20
2022-10-19T15:38:10.163Z,5.60
2022-10-19T15:40:40.770Z,3.95
2022-10-19T15:43:34.956Z,4.28
2022-10-19T15:46:05.409Z,3.85
2022-10-19T15:48:49.942Z,4.65
2022-10-19T15:51:25.499Z,5.20
2022-10-19T15:53:59.928Z,5.30
2022-10-19T15:56:29.246Z,5.30
2022-10-19T15:58:58.314Z,3.72
2022-10-19T16:01:27.366Z,4.35
2022-10-19T16:03:54.916Z,3.53
2022-10-19T16:06:24.809Z,3.53
2022-10-19T16:11:21.264Z,6.22
2022-10-19T16:16:33.444Z,3.65
2022-10-19T16:19:00.856Z,3.83
2022-10-19T16:21:30.754Z,4.38
2022-10-19T16:23:58.158Z,5.18
2022-10-19T16:26:26.278Z,3.50
2022-10-19T16:28:54.265Z,4.68
2022-10-19T16:31:21.653Z,4.70
2022-10-19T16:33:48.333Z,4.38
2022-10-19T16:36:15.438Z,5.88
2022-10-19T16:38:42.100Z,4.28
2022-10-19T16:41:10.860Z,5.72
2022-10-19T16:43:37.985Z,9.32
2022-10-19T16:46:05.641Z,6.20
2022-10-19T16:48:32.849Z,11.77
2022-10-19T16:51:05.683Z,26.08
2022-10-19T16:53:33.562Z,16.20
2022-10-19T16:56:08.938Z,13.13
2022-10-19T16:58:37.314Z,10.25
2022-10-19T17:01:08.364Z,11.95
2022-10-19T17:03:35.760Z,12.32
2022-10-19T17:06:03.804Z,12.63
2022-10-19T17:08:37.197Z,15.45
2022-10-19T17:11:23.684Z,13.57
2022-10-19T17:13:52.749Z,13.25
2022-10-19T17:16:21.304Z,15.50
2022-10-19T17:18:48.620Z,13.13
2022-10-19T17:21:19.039Z,16.42
2022-10-19T17:23:46.360Z,17.42
2022-10-19T17:26:13.726Z,16.88
2022-10-19T17:28:40.801Z,15.25
2022-10-19T17:31:12.860Z,14.35
2022-10-19T17:33:40.942Z,13.02
2022-10-19T17:36:11.984Z,11.82
2022-10-19T17:38:39.570Z,8.25
2022-10-19T17:41:16.485Z,10.10
2022-10-19T17:43:45.522Z,8.38
2022-10-19T17:46:14.550Z,7.87
2022-10-19T17:48:43.074Z,5.57
2022-10-19T17:51:16.835Z,7.22
2022-10-19T17:53:45.492Z,10.55
2022-10-19T17:56:18.055Z,9.75
2022-10-19T17:58:45.363Z,10.85
2022-10-19T18:01:13.026Z,7.82
2022-10-19T18:03:40.303Z,7.43
2022-10-19T18:06:10.870Z,9.30
2022-10-19T18:08:40.809Z,8.23
2022-10-19T18:11:13.154Z,7.10
2022-10-19T18:13:40.528Z,14.98
2022-10-19T18:16:13.306Z,7.85
2022-10-19T18:18:42.279Z,7.20
2022-10-19T18:21:11.532Z,7.53
2022-10-19T18:23:38.991Z,6.75
2022-10-19T18:26:13.490Z,9.15
2022-10-19T18:28:40.634Z,12.18
2022-10-19T18:31:16.107Z,8.80
2022-10-19T18:33:43.122Z,11.00
2022-10-19T18:36:10.803Z,11.73
2022-10-19T18:38:38.452Z,14.40
2022-10-19T18:41:25.912Z,11.05
2022-10-19T18:43:55.423Z,8.15
2022-10-19T18:46:23.409Z,9.38
2022-10-19T18:48:50.209Z,8.43
2022-10-19T18:51:18.499Z,7.93
2022-10-19T18:53:46.370Z,9.38
2022-10-19T18:56:15.582Z,9.10
2022-10-19T18:58:43.246Z,7.47
2022-10-19T19:01:24.221Z,10.85
2022-10-19T19:03:53.300Z,11.25
2022-10-19T19:06:30.401Z,6.70
2022-10-19T19:08:58.834Z,8.15
2022-10-19T19:11:29.582Z,6.15
2022-10-19T19:14:06.251Z,6.72
2022-10-19T19:16:36.500Z,8.65
2022-10-19T19:19:04.635Z,8.80
2022-10-19T19:21:32.006Z,8.98
2022-10-19T19:24:00.769Z,9.10
2022-10-19T19:26:30.589Z,6.57
2022-10-19T19:31:26.756Z,8.20
2022-10-19T19:33:53.408Z,7.13
2022-10-19T19:36:21.008Z,9.52
2022-10-19T19:38:50.549Z,8.02
2022-10-19T19:41:17.742Z,6.82
2022-10-19T19:43:44.901Z,7.45
2022-10-19T19:46:17.402Z,8.43
2022-10-19T19:48:46.326Z,7.22
2022-10-19T19:51:16.787Z,8.73
2022-10-19T19:53:44.075Z,7.88
2022-10-19T19:56:12.312Z,5.78
2022-10-19T19:58:39.446Z,9.43
2022-10-19T20:01:19.219Z,4.65
2022-10-19T20:06:18.679Z,6.90
2022-10-19T20:08:47.640Z,9.52
2022-10-19T20:11:16.227Z,6.97
2022-10-19T20:13:44.543Z,5.85
2022-10-19T20:16:13.736Z,6.68
2022-10-19T20:18:41.451Z,7.10
2022-10-19T20:21:08.184Z,8.60
2022-10-19T20:23:35.073Z,7.93
2022-10-19T20:26:02.109Z,6.63
2022-10-19T20:28:32.110Z,9.65
2022-10-19T20:31:06.571Z,5.15
2022-10-19T20:33:35.195Z,4.95
2022-10-19T20:36:13.310Z,7.15
2022-10-19T20:38:40.740Z,6.35
2022-10-19T20:41:09.481Z,5.28
2022-10-19T20:43:37.624Z,9.55
2022-10-19T20:46:05.948Z,5.70
2022-10-19T20:48:33.081Z,4.78
2022-10-19T20:51:21.347Z,10.88
2022-10-19T20:53:50.263Z,6.28
2022-10-19T20:56:23.213Z,9.57
2022-10-19T20:59:05.063Z,5.20
2022-10-19T21:01:33.910Z,7.07
2022-10-19T21:04:03.350Z,9.43
2022-10-19T21:06:31.823Z,9.13
2022-10-19T21:08:59.817Z,4.75
2022-10-19T21:11:35.468Z,9.48
2022-10-19T21:14:05.984Z,8.90
2022-10-19T21:16:34.101Z,4.82
2022-10-19T21:19:02.780Z,4.80
2022-10-19T21:21:32.177Z,7.22
2022-10-19T21:24:01.278Z,3.40
2022-10-19T21:26:28.648Z,4.93
2022-10-19T21:28:55.821Z,9.35
2022-10-19T21:31:25.002Z,4.57
2022-10-19T21:33:52.211Z,3.72
2022-10-19T21:36:21.086Z,4.85
2022-10-19T21:38:48.136Z,5.47
2022-10-19T21:41:20.959Z,5.65
2022-10-19T21:43:50.674Z,5.70
2022-10-19T21:46:19.659Z,4.53
2022-10-19T21:48:46.842Z,5.50
2022-10-19T21:51:33.783Z,4.25
2022-10-19T21:54:01.640Z,3.70
2022-10-19T21:56:28.630Z,9.82
2022-10-19T21:58:56.017Z,3.00
2022-10-19T22:01:26.090Z,4.55
2022-10-19T22:04:04.605Z,3.60
2022-10-19T22:06:33.395Z,2.63
2022-10-19T22:09:01.509Z,3.78
2022-10-19T22:11:28.816Z,2.80
2022-10-19T22:13:57.263Z,2.53
2022-10-19T22:16:25.104Z,3.72
2022-10-19T22:18:52.686Z,3.33
2022-10-19T22:21:23.073Z,4.68
2022-10-19T22:24:00.588Z,6.38
2022-10-19T22:26:30.359Z,3.55
2022-10-19T22:28:58.558Z,5.78
2022-10-19T22:31:27.202Z,3.03
2022-10-19T22:33:53.947Z,5.25
2022-10-19T22:36:20.750Z,4.05
2022-10-19T22:38:47.835Z,6.47
2022-10-19T22:42:10.560Z,4.43
2022-10-19T22:44:49.300Z,3.90
2022-10-19T22:47:16.040Z,7.82
2022-10-19T22:49:42.919Z,6.07
2022-10-19T22:52:09.686Z,4.75
2022-10-19T22:54:36.372Z,6.10
2022-10-19T22:57:03.612Z,7.53
2022-10-19T22:59:33.761Z,6.03
2022-10-19T23:02:06.403Z,3.97
2022-10-19T23:04:36.766Z,6.15
2022-10-19T23:07:05.079Z,3.38
2022-10-19T23:09:34.275Z,4.20
2022-10-19T23:12:05.347Z,3.83
2022-10-19T23:14:35.643Z,2.10
2022-10-19T23:17:04.670Z,3.78
2022-10-19T23:19:35.906Z,3.22
2022-10-19T23:22:09.177Z,4.55
2022-10-19T23:24:39.272Z,3.95
2022-10-19T23:27:09.196Z,5.43
2022-10-19T23:29:40.664Z,4.18
2022-10-19T23:32:12.388Z,5.13
2022-10-19T23:34:47.577Z,5.60
2022-10-19T23:37:17.049Z,4.50
2022-10-19T23:39:58.253Z,3.38
2022-10-19T23:42:25.443Z,5.90
2022-10-19T23:44:54.682Z,6.30
2022-10-19T23:47:22.558Z,4.10
2022-10-19T23:49:49.177Z,4.55
2022-10-19T23:52:16.975Z,3.55
2022-10-19T23:54:45.470Z,3.67
2022-10-19T23:57:16.955Z,5.18
2022-10-19T23:59:46.469Z,5.30
